Aviation Digital Data Service (ADDS)

Output produced by METARs form (1210 UTC 23 August 2017)
found at http://aviationweather.gov/adds/metars/
 
KARA 231153Z 08004KT 10SM CLR 23/21 A3000 RMK AO2 SLP158 T02330211 10244 20222 53003